createdAt,value
2022-08-01T00:00:09.283Z,3.60
2022-08-01T00:02:37.072Z,4.10
2022-08-01T00:05:06.554Z,3.63
2022-08-01T00:07:34.061Z,3.28
2022-08-01T00:10:01.157Z,3.97
2022-08-01T00:12:28.322Z,3.22
2022-08-01T00:14:55.410Z,3.55
2022-08-01T00:17:22.693Z,3.40
2022-08-01T00:19:49.849Z,3.55
2022-08-01T00:22:16.944Z,3.63
2022-08-01T00:24:44.021Z,3.35
2022-08-01T00:27:11.067Z,3.33
2022-08-01T00:30:10.916Z,3.42
2022-08-01T00:32:25.509Z,3.83
2022-08-01T00:34:52.574Z,3.75
2022-08-01T00:37:19.756Z,3.10
2022-08-01T00:39:46.868Z,3.70
2022-08-01T00:42:14.312Z,3.25
2022-08-01T00:44:41.563Z,3.22
2022-08-01T00:47:08.946Z,3.65
2022-08-01T00:49:36.586Z,3.22
2022-08-01T00:52:05.711Z,3.65
2022-08-01T00:54:33.157Z,3.72
2022-08-01T00:57:00.433Z,3.70
2022-08-01T00:59:28.009Z,3.80
2022-08-01T01:01:55.351Z,3.88
2022-08-01T01:04:23.507Z,3.80
2022-08-01T01:07:12.330Z,3.75
2022-08-01T01:10:01.287Z,4.07
2022-08-01T01:12:41.884Z,4.68
2022-08-01T01:15:10.754Z,4.90
2022-08-01T01:17:51.470Z,5.00
2022-08-01T01:20:19.934Z,4.68
2022-08-01T01:22:49.861Z,5.15
2022-08-01T01:25:23.341Z,5.50
2022-08-01T01:28:01.145Z,4.93
2022-08-01T01:30:29.879Z,5.70
2022-08-01T01:33:00.164Z,5.30
2022-08-01T01:35:29.045Z,5.88
2022-08-01T01:37:59.598Z,5.78
2022-08-01T01:40:27.420Z,5.68
2022-08-01T01:42:56.702Z,5.38
2022-08-01T01:45:25.818Z,5.40
2022-08-01T01:47:53.642Z,5.80
2022-08-01T01:50:24.546Z,5.50
2022-08-01T01:52:52.742Z,5.15
2022-08-01T01:55:21.406Z,5.55
2022-08-01T01:57:49.003Z,5.90
2022-08-01T02:00:17.071Z,5.57
2022-08-01T02:02:46.008Z,5.78
2022-08-01T02:05:13.754Z,5.85
2022-08-01T02:07:41.762Z,5.63
2022-08-01T02:10:09.789Z,5.35
2022-08-01T02:12:39.147Z,6.30
2022-08-01T02:15:06.713Z,6.32
2022-08-01T02:17:38.423Z,6.20
2022-08-01T02:20:05.639Z,6.32
2022-08-01T02:22:35.259Z,6.43
2022-08-01T02:25:09.691Z,6.50
2022-08-01T02:27:41.872Z,6.47
2022-08-01T02:30:10.080Z,6.20
2022-08-01T02:32:47.822Z,6.55
2022-08-01T02:35:21.494Z,7.93
2022-08-01T02:37:50.338Z,6.40
2022-08-01T02:40:18.854Z,8.55
2022-08-01T02:42:47.123Z,7.43
2022-08-01T02:45:14.826Z,7.72
2022-08-01T02:47:42.969Z,6.85
2022-08-01T02:50:12.323Z,7.43
2022-08-01T02:52:39.707Z,7.00
2022-08-01T02:55:07.385Z,7.22
2022-08-01T02:57:42.707Z,7.60
2022-08-01T03:00:20.055Z,8.18
2022-08-01T03:02:49.414Z,8.25
2022-08-01T03:05:16.990Z,7.72
2022-08-01T03:07:44.210Z,7.97
2022-08-01T03:10:11.965Z,8.13
2022-08-01T03:12:39.840Z,8.90
2022-08-01T03:15:07.838Z,8.68
2022-08-01T03:17:38.512Z,9.40
2022-08-01T03:20:09.825Z,8.93
2022-08-01T03:22:38.750Z,9.10
2022-08-01T03:25:07.165Z,9.75
2022-08-01T03:27:34.459Z,9.75
2022-08-01T03:30:03.781Z,9.68
2022-08-01T03:32:31.401Z,8.88
2022-08-01T03:34:58.753Z,9.13
2022-08-01T03:37:27.131Z,9.85
2022-08-01T03:39:56.909Z,9.25
2022-08-01T03:42:27.001Z,9.95
2022-08-01T03:45:00.412Z,9.55
2022-08-01T03:47:31.290Z,9.82
2022-08-01T03:49:59.406Z,9.75
2022-08-01T03:52:27.413Z,10.02
2022-08-01T03:54:56.485Z,9.48
2022-08-01T03:57:36.329Z,10.20
2022-08-01T04:00:08.176Z,9.52
2022-08-01T04:02:36.033Z,9.73
2022-08-01T04:05:03.609Z,10.35
2022-08-01T04:07:32.051Z,9.65
2022-08-01T04:09:59.359Z,10.55
2022-08-01T04:12:26.505Z,10.07
2022-08-01T04:14:53.705Z,10.80
2022-08-01T04:17:20.784Z,10.65
2022-08-01T04:19:47.908Z,10.73
2022-08-01T04:22:15.985Z,10.27
2022-08-01T04:24:44.238Z,10.00
2022-08-01T04:27:13.078Z,10.45
2022-08-01T04:29:40.942Z,10.50
2022-08-01T04:32:10.721Z,10.48
2022-08-01T04:34:39.108Z,9.82
2022-08-01T04:37:06.502Z,10.85
2022-08-01T04:39:50.214Z,10.48
2022-08-01T04:42:17.953Z,10.93
2022-08-01T04:44:54.095Z,11.05
2022-08-01T04:47:21.582Z,10.77
2022-08-01T04:49:49.438Z,11.25
2022-08-01T04:52:22.930Z,11.68
2022-08-01T04:54:51.813Z,11.80
2022-08-01T04:57:18.883Z,10.95
2022-08-01T04:59:47.157Z,11.48
2022-08-01T05:02:14.259Z,10.55
2022-08-01T05:04:42.337Z,11.35
2022-08-01T05:07:09.962Z,12.18
2022-08-01T05:09:37.236Z,10.63
2022-08-01T05:12:06.616Z,12.23
2022-08-01T05:14:34.282Z,11.38
2022-08-01T05:17:04.006Z,11.40
2022-08-01T05:19:32.771Z,12.15
2022-08-01T05:22:01.549Z,12.38
2022-08-01T05:24:35.569Z,13.13
2022-08-01T05:27:04.361Z,13.35
2022-08-01T05:29:31.933Z,11.07
2022-08-01T05:32:00.026Z,12.07
2022-08-01T05:34:27.693Z,11.90
2022-08-01T05:36:57.913Z,12.55
2022-08-01T05:39:25.168Z,12.60
2022-08-01T05:41:52.244Z,13.02
2022-08-01T05:44:19.316Z,11.50
2022-08-01T05:46:47.219Z,11.60
2022-08-01T05:49:14.373Z,10.90
2022-08-01T05:51:41.458Z,11.85
2022-08-01T05:54:08.598Z,10.98
2022-08-01T05:56:35.828Z,10.85
2022-08-01T05:59:02.927Z,11.40
2022-08-01T06:01:30.074Z,11.38
2022-08-01T06:03:57.230Z,12.07
2022-08-01T06:06:25.482Z,11.00
2022-08-01T06:08:52.964Z,11.35
2022-08-01T06:11:20.171Z,12.43
2022-08-01T06:13:48.493Z,11.07
2022-08-01T06:16:16.067Z,11.55
2022-08-01T06:18:43.179Z,11.27
2022-08-01T06:21:10.358Z,12.15
2022-08-01T06:23:38.176Z,10.23
2022-08-01T06:26:05.316Z,10.85
2022-08-01T06:28:32.415Z,9.70
2022-08-01T06:31:00.388Z,9.75
2022-08-01T06:33:27.961Z,11.13
2022-08-01T06:35:55.294Z,10.48
2022-08-01T06:38:22.628Z,9.20
2022-08-01T06:40:49.886Z,10.93
2022-08-01T06:43:17.017Z,11.27
2022-08-01T06:45:44.136Z,13.13
2022-08-01T06:48:11.238Z,11.63
2022-08-01T06:50:38.368Z,11.57
2022-08-01T06:53:05.602Z,11.82
2022-08-01T06:55:32.841Z,10.00
2022-08-01T06:57:59.976Z,11.30
2022-08-01T07:00:27.855Z,10.57
2022-08-01T07:02:56.037Z,11.50
2022-08-01T07:05:23.579Z,11.18
2022-08-01T07:07:50.969Z,9.20
2022-08-01T07:10:18.401Z,11.07
2022-08-01T07:12:45.639Z,11.40
2022-08-01T07:15:12.984Z,10.38
2022-08-01T07:17:43.775Z,8.55
2022-08-01T07:20:11.878Z,9.73
2022-08-01T07:22:41.168Z,9.30
2022-08-01T07:25:09.046Z,9.30
2022-08-01T07:27:38.671Z,8.82
2022-08-01T07:30:06.749Z,8.13
2022-08-01T07:32:35.703Z,6.90
2022-08-01T07:35:03.691Z,7.75
2022-08-01T07:37:46.305Z,7.53
2022-08-01T07:40:16.402Z,7.63
2022-08-01T07:42:44.389Z,7.47
2022-08-01T07:45:12.114Z,5.82
2022-08-01T07:47:39.473Z,6.47
2022-08-01T07:50:07.241Z,6.72
2022-08-01T07:52:34.411Z,7.15
2022-08-01T07:55:01.459Z,5.63
2022-08-01T07:57:28.555Z,5.47
2022-08-01T07:59:55.832Z,5.10
2022-08-01T08:02:23.010Z,5.90
2022-08-01T08:04:50.165Z,5.40
2022-08-01T08:07:17.486Z,4.80
2022-08-01T08:09:44.547Z,4.50
2022-08-01T08:12:18.128Z,3.75
2022-08-01T08:14:45.590Z,4.20
2022-08-01T08:17:12.669Z,4.60
2022-08-01T08:19:40.697Z,4.45
2022-08-01T08:22:09.104Z,5.05
2022-08-01T08:24:37.211Z,4.55
2022-08-01T08:27:13.357Z,4.43
2022-08-01T08:29:40.652Z,4.93
2022-08-01T08:32:08.345Z,4.05
2022-08-01T08:34:35.687Z,4.68
2022-08-01T08:37:02.779Z,4.20
2022-08-01T08:39:30.934Z,3.35
2022-08-01T08:42:09.755Z,3.15
2022-08-01T08:44:36.874Z,3.00
2022-08-01T08:47:09.305Z,3.25
2022-08-01T08:49:37.204Z,3.17
2022-08-01T08:52:05.276Z,3.10
2022-08-01T08:54:33.485Z,2.72
2022-08-01T08:57:02.321Z,2.55
2022-08-01T08:59:29.867Z,3.10
2022-08-01T09:01:57.341Z,3.00
2022-08-01T09:04:26.341Z,3.35
2022-08-01T09:06:54.049Z,2.53
2022-08-01T09:09:21.209Z,3.20
2022-08-01T09:11:57.224Z,5.15
2022-08-01T09:14:27.082Z,2.88
2022-08-01T09:17:21.006Z,3.13
2022-08-01T09:19:49.509Z,2.60
2022-08-01T09:22:22.355Z,3.00
2022-08-01T09:24:59.319Z,3.78
2022-08-01T09:27:26.573Z,2.25
2022-08-01T09:30:01.361Z,3.25
2022-08-01T09:32:36.712Z,2.08
2022-08-01T09:35:30.636Z,2.50
2022-08-01T09:38:17.292Z,2.40
2022-08-01T09:41:01.481Z,2.17
2022-08-01T09:43:29.670Z,2.45
2022-08-01T09:45:58.799Z,2.28
2022-08-01T09:48:28.602Z,2.25
2022-08-01T09:51:04.241Z,2.75
2022-08-01T09:53:50.967Z,2.85
2022-08-01T09:56:19.415Z,2.50
2022-08-01T09:59:02.801Z,2.40
2022-08-01T10:01:45.050Z,2.35
2022-08-01T10:04:21.911Z,2.40
2022-08-01T10:06:53.595Z,2.03
2022-08-01T10:09:35.802Z,2.13
2022-08-01T10:12:08.729Z,4.00
2022-08-01T10:14:36.811Z,3.30
2022-08-01T10:17:05.243Z,2.72
2022-08-01T10:19:33.536Z,2.10
2022-08-01T10:22:03.490Z,1.77
2022-08-01T10:24:33.324Z,1.40
2022-08-01T10:27:05.942Z,1.40
2022-08-01T10:29:45.939Z,3.10
2022-08-01T10:32:28.991Z,2.45
2022-08-01T10:34:56.888Z,1.73
2022-08-01T10:37:24.390Z,1.77
2022-08-01T10:40:14.005Z,1.23
2022-08-01T10:42:46.359Z,1.20
2022-08-01T10:45:15.145Z,1.25
2022-08-01T10:47:49.753Z,1.38
2022-08-01T10:50:25.884Z,1.20
2022-08-01T10:53:42.932Z,1.10
2022-08-01T10:56:12.834Z,1.48
2022-08-01T10:58:44.722Z,1.20
2022-08-01T11:01:25.901Z,1.40
2022-08-01T11:04:01.623Z,1.20
2022-08-01T11:06:49.191Z,1.00
2022-08-01T11:09:36.453Z,1.30
2022-08-01T11:12:08.927Z,1.40
2022-08-01T11:14:59.561Z,1.25
2022-08-01T11:17:48.426Z,1.45
2022-08-01T11:20:31.280Z,1.40
2022-08-01T11:23:07.669Z,1.48
2022-08-01T11:26:05.401Z,1.58
2022-08-01T11:28:32.008Z,1.40
2022-08-01T11:31:11.092Z,1.63
2022-08-01T11:33:42.375Z,1.63
2022-08-01T11:36:36.969Z,1.50
2022-08-01T11:39:13.312Z,1.30
2022-08-01T11:41:41.471Z,1.20
2022-08-01T11:44:15.623Z,1.48
2022-08-01T11:46:51.807Z,1.38
2022-08-01T11:49:24.907Z,1.35
2022-08-01T11:51:59.615Z,1.20
2022-08-01T11:54:35.367Z,1.20
2022-08-01T11:57:05.542Z,1.67
2022-08-01T12:00:02.747Z,1.67
2022-08-01T12:02:35.071Z,2.80
2022-08-01T12:05:08.430Z,2.20
2022-08-01T12:07:39.318Z,3.00
2022-08-01T12:10:06.494Z,2.30
2022-08-01T12:12:35.020Z,1.35
2022-08-01T12:15:03.465Z,1.23
2022-08-01T12:17:35.392Z,2.45
2022-08-01T12:20:03.387Z,3.13
2022-08-01T12:22:30.510Z,2.70
2022-08-01T12:24:58.116Z,3.15
2022-08-01T12:27:27.601Z,1.50
2022-08-01T12:29:54.701Z,2.22
2022-08-01T12:32:35.802Z,0.90
2022-08-01T12:35:07.698Z,1.60
2022-08-01T12:37:41.983Z,2.22
2022-08-01T12:40:12.114Z,1.98
2022-08-01T12:42:40.824Z,1.63
2022-08-01T12:45:09.920Z,1.63
2022-08-01T12:47:39.171Z,2.33
2022-08-01T12:50:17.950Z,1.70
2022-08-01T12:52:45.269Z,2.20
2022-08-01T12:55:14.442Z,2.20
2022-08-01T12:57:42.873Z,1.67
2022-08-01T13:00:11.437Z,1.67
2022-08-01T13:02:39.736Z,1.70
2022-08-01T13:05:07.809Z,1.58
2022-08-01T13:07:45.449Z,1.60
2022-08-01T13:10:13.754Z,2.05
2022-08-01T13:12:43.009Z,1.58
2022-08-01T13:15:18.089Z,2.05
2022-08-01T13:17:45.286Z,1.70
2022-08-01T13:20:22.563Z,1.50
2022-08-01T13:22:50.054Z,1.70
2022-08-01T13:25:22.086Z,1.75
2022-08-01T13:27:52.288Z,1.40
2022-08-01T13:30:22.852Z,1.60
2022-08-01T13:32:59.665Z,1.60
2022-08-01T13:35:26.790Z,1.75
2022-08-01T13:37:53.964Z,2.08
2022-08-01T13:40:25.380Z,1.67
2022-08-01T13:42:52.451Z,1.42
2022-08-01T13:45:22.241Z,1.65
2022-08-01T13:48:03.603Z,1.10
2022-08-01T13:50:37.043Z,1.70
2022-08-01T13:53:04.131Z,1.88
2022-08-01T13:55:34.951Z,1.30
2022-08-01T13:58:03.552Z,1.63
2022-08-01T14:00:30.689Z,1.45
2022-08-01T14:02:57.733Z,1.33
2022-08-01T14:05:24.836Z,1.30
2022-08-01T14:07:56.486Z,1.30
2022-08-01T14:10:23.916Z,1.63
2022-08-01T14:12:51.086Z,1.27
2022-08-01T14:15:38.245Z,1.50
2022-08-01T14:18:07.292Z,1.40
2022-08-01T14:20:38.291Z,1.00
2022-08-01T14:23:08.534Z,1.40
2022-08-01T14:26:01.592Z,2.00
2022-08-01T14:28:25.171Z,2.00
2022-08-01T14:30:52.338Z,1.70
2022-08-01T14:33:19.428Z,1.83
2022-08-01T14:36:01.719Z,1.90
2022-08-01T14:38:34.223Z,1.30
2022-08-01T14:41:03.623Z,1.40
2022-08-01T14:43:33.620Z,1.40
2022-08-01T14:46:01.731Z,1.60
2022-08-01T14:48:30.115Z,1.33
2022-08-01T14:50:57.666Z,1.30
2022-08-01T14:53:24.748Z,1.20
2022-08-01T14:55:51.852Z,1.50
2022-08-01T14:58:18.921Z,1.20
2022-08-01T15:00:46.320Z,1.60
2022-08-01T15:03:13.518Z,1.45
2022-08-01T15:05:40.624Z,1.42
2022-08-01T15:08:08.096Z,1.70
2022-08-01T15:10:35.261Z,1.60
2022-08-01T15:13:02.668Z,1.30
2022-08-01T15:15:29.840Z,1.73
2022-08-01T15:17:57.153Z,1.80
2022-08-01T15:20:24.378Z,1.30
2022-08-01T15:22:51.531Z,1.30
2022-08-01T15:25:18.840Z,1.20
2022-08-01T15:27:46.044Z,1.58
2022-08-01T15:30:13.374Z,1.55
2022-08-01T15:32:40.426Z,2.10
2022-08-01T15:35:07.997Z,1.60
2022-08-01T15:37:38.461Z,1.70
2022-08-01T15:40:08.303Z,1.70
2022-08-01T15:42:35.812Z,1.50
2022-08-01T15:45:02.895Z,1.55
2022-08-01T15:47:31.186Z,1.67
2022-08-01T15:50:00.453Z,1.60
2022-08-01T15:52:30.746Z,1.60
2022-08-01T15:54:58.899Z,1.80
2022-08-01T15:57:26.026Z,1.70
2022-08-01T15:59:53.300Z,1.70
2022-08-01T16:02:20.442Z,1.48
2022-08-01T16:04:47.656Z,1.38
2022-08-01T16:07:14.698Z,1.20
2022-08-01T16:09:41.825Z,1.33
2022-08-01T16:12:10.133Z,1.30
2022-08-01T16:14:37.517Z,1.10
2022-08-01T16:17:04.654Z,1.15
2022-08-01T16:19:31.805Z,1.67
2022-08-01T16:21:58.958Z,1.10
2022-08-01T16:24:29.121Z,1.48
2022-08-01T16:26:56.316Z,0.93
2022-08-01T16:29:23.686Z,1.50
2022-08-01T16:32:00.709Z,1.38
2022-08-01T16:34:31.813Z,2.00
2022-08-01T16:37:00.669Z,1.42
2022-08-01T16:39:27.872Z,1.73
2022-08-01T16:41:55.574Z,1.50
2022-08-01T16:44:33.282Z,1.83
2022-08-01T16:47:01.809Z,1.80
2022-08-01T16:49:28.965Z,1.80
2022-08-01T16:51:56.128Z,1.83
2022-08-01T16:54:24.923Z,1.65
2022-08-01T16:56:53.460Z,1.80
2022-08-01T16:59:20.575Z,1.60
2022-08-01T17:01:58.008Z,1.40
2022-08-01T17:04:28.969Z,1.52
2022-08-01T17:06:56.067Z,1.73
2022-08-01T17:09:23.173Z,1.65
2022-08-01T17:11:50.294Z,1.42
2022-08-01T17:14:17.852Z,1.77
2022-08-01T17:16:45.186Z,1.98
2022-08-01T17:19:12.288Z,1.80
2022-08-01T17:21:42.030Z,2.20
2022-08-01T17:24:09.282Z,2.05
2022-08-01T17:26:36.467Z,1.90
2022-08-01T17:29:03.936Z,1.45
2022-08-01T17:31:31.032Z,1.50
2022-08-01T17:33:58.079Z,2.55
2022-08-01T17:36:25.165Z,1.80
2022-08-01T17:38:52.321Z,1.85
2022-08-01T17:41:20.635Z,1.60
2022-08-01T17:43:48.006Z,2.17
2022-08-01T17:46:15.170Z,1.67
2022-08-01T17:48:44.262Z,1.90
2022-08-01T17:51:11.294Z,1.92
2022-08-01T17:53:38.428Z,1.90
2022-08-01T17:56:24.639Z,2.10
2022-08-01T17:58:52.388Z,2.28
2022-08-01T18:01:20.253Z,2.10
2022-08-01T18:03:48.074Z,1.83
2022-08-01T18:06:19.311Z,2.45
2022-08-01T18:08:47.677Z,2.05
2022-08-01T18:11:15.569Z,2.25
2022-08-01T18:13:42.799Z,2.50
2022-08-01T18:16:12.613Z,2.28
2022-08-01T18:18:40.581Z,2.13
2022-08-01T18:21:08.346Z,1.90
2022-08-01T18:23:35.651Z,2.30
2022-08-01T18:26:05.095Z,2.20
2022-08-01T18:28:37.985Z,1.90
2022-08-01T18:31:08.352Z,1.98
2022-08-01T18:33:36.047Z,2.38
2022-08-01T18:36:04.563Z,2.20
2022-08-01T18:38:35.217Z,1.70
2022-08-01T18:41:09.915Z,1.55
2022-08-01T18:43:37.519Z,1.83
2022-08-01T18:46:06.287Z,1.65
2022-08-01T18:48:33.356Z,1.52
2022-08-01T18:51:00.797Z,1.95
2022-08-01T18:53:28.341Z,1.80
2022-08-01T18:55:55.479Z,2.10
2022-08-01T18:58:22.801Z,1.80
2022-08-01T19:00:50.261Z,1.90
2022-08-01T19:03:20.490Z,2.53
2022-08-01T19:05:49.335Z,2.33
2022-08-01T19:08:16.415Z,2.10
2022-08-01T19:10:43.564Z,1.80
2022-08-01T19:13:10.724Z,1.75
2022-08-01T19:15:37.792Z,1.88
2022-08-01T19:18:05.079Z,2.33
2022-08-01T19:20:32.326Z,1.95
2022-08-01T19:22:59.517Z,1.92
2022-08-01T19:25:26.765Z,1.98
2022-08-01T19:27:56.618Z,2.00
2022-08-01T19:30:24.031Z,1.98
2022-08-01T19:32:51.566Z,2.30
2022-08-01T19:35:18.867Z,2.20
2022-08-01T19:37:47.182Z,2.50
2022-08-01T19:40:27.614Z,2.20
2022-08-01T19:42:55.799Z,1.85
2022-08-01T19:45:22.931Z,1.92
2022-08-01T19:47:57.408Z,2.17
2022-08-01T19:50:28.433Z,2.20
2022-08-01T19:52:59.277Z,2.15
2022-08-01T19:55:27.740Z,2.30
2022-08-01T19:58:26.270Z,2.47
2022-08-01T20:00:43.014Z,3.08
2022-08-01T20:03:10.656Z,2.38
2022-08-01T20:05:38.943Z,2.78
2022-08-01T20:08:06.924Z,2.60
2022-08-01T20:10:37.424Z,2.30
2022-08-01T20:13:05.222Z,2.42
2022-08-01T20:15:32.323Z,2.45
2022-08-01T20:17:59.695Z,2.53
2022-08-01T20:20:27.133Z,3.88
2022-08-01T20:22:55.666Z,3.58
2022-08-01T20:25:23.185Z,3.50
2022-08-01T20:27:50.293Z,3.35
2022-08-01T20:30:17.419Z,2.47
2022-08-01T20:32:46.562Z,3.00
2022-08-01T20:35:13.653Z,2.67
2022-08-01T20:38:03.301Z,3.15
2022-08-01T20:40:28.378Z,2.88
2022-08-01T20:42:56.054Z,2.80
2022-08-01T20:45:24.620Z,2.75
2022-08-01T20:47:53.790Z,3.10
2022-08-01T20:50:53.051Z,2.80
2022-08-01T20:53:22.657Z,2.58
2022-08-01T20:55:50.522Z,2.33
2022-08-01T20:58:24.553Z,2.63
2022-08-01T21:00:53.117Z,3.00
2022-08-01T21:03:23.486Z,2.80
2022-08-01T21:05:56.003Z,2.70
2022-08-01T21:08:36.017Z,2.80
2022-08-01T21:11:03.979Z,2.60
2022-08-01T21:13:57.425Z,2.67
2022-08-01T21:16:29.916Z,2.67
2022-08-01T21:21:51.852Z,2.70
2022-08-01T21:24:19.686Z,2.88
2022-08-01T21:26:47.239Z,2.88
2022-08-01T21:29:15.379Z,2.92
2022-08-01T21:31:42.659Z,2.85
2022-08-01T21:34:12.029Z,2.65
2022-08-01T21:36:39.167Z,2.75
2022-08-01T21:39:07.613Z,2.72
2022-08-01T21:42:01.501Z,2.58
2022-08-01T21:44:28.685Z,2.90
2022-08-01T21:46:58.890Z,2.83
2022-08-01T21:49:26.199Z,2.60
2022-08-01T21:52:11.555Z,2.50
2022-08-01T21:54:51.055Z,2.95
2022-08-01T21:57:36.733Z,2.78
2022-08-01T22:00:20.881Z,2.40
2022-08-01T22:03:22.423Z,2.42
2022-08-01T22:05:51.532Z,2.60
2022-08-01T22:08:35.490Z,2.55
2022-08-01T22:11:07.045Z,2.92
2022-08-01T22:13:34.741Z,2.83
2022-08-01T22:16:02.904Z,3.58
2022-08-01T22:18:29.983Z,2.92
2022-08-01T22:20:57.075Z,3.28
2022-08-01T22:23:24.497Z,2.85
2022-08-01T22:25:55.051Z,2.83
2022-08-01T22:28:22.660Z,2.53
2022-08-01T22:30:51.606Z,2.83
2022-08-01T22:33:19.015Z,2.72
2022-08-01T22:35:47.346Z,2.80
2022-08-01T22:38:17.487Z,2.67
2022-08-01T22:40:52.412Z,2.85
2022-08-01T22:43:38.034Z,2.60
2022-08-01T22:46:14.218Z,2.60
2022-08-01T22:48:46.649Z,2.88
2022-08-01T22:51:19.856Z,2.40
2022-08-01T22:54:03.665Z,2.70
2022-08-01T22:56:32.902Z,2.92
2022-08-01T22:59:02.854Z,2.72
2022-08-01T23:01:30.208Z,2.60
2022-08-01T23:03:58.747Z,2.60
2022-08-01T23:06:28.582Z,2.80
2022-08-01T23:08:56.510Z,2.67
2022-08-01T23:11:24.002Z,3.08
2022-08-01T23:13:54.509Z,2.50
2022-08-01T23:16:22.495Z,2.88
2022-08-01T23:18:49.818Z,2.90
2022-08-01T23:21:17.309Z,3.20
2022-08-01T23:23:45.206Z,2.55
2022-08-01T23:26:12.568Z,2.78
2022-08-01T23:28:43.130Z,2.35
2022-08-01T23:31:11.630Z,2.95
2022-08-01T23:33:38.705Z,3.45
2022-08-01T23:36:05.950Z,2.83
2022-08-01T23:38:33.173Z,2.50
2022-08-01T23:41:00.257Z,3.03
2022-08-01T23:43:27.440Z,2.65
2022-08-01T23:46:03.719Z,2.97
2022-08-01T23:48:32.883Z,2.88
2022-08-01T23:51:00.034Z,2.85
2022-08-01T23:53:31.081Z,3.13
2022-08-01T23:55:58.857Z,2.55
2022-08-01T23:58:26.010Z,3.08
